TimeEST,TemperatureF,Dew PointF,Humidity,Sea Level PressureIn,VisibilityMPH,Wind Direction,Wind SpeedMPH,Gust SpeedMPH,PrecipitationIn,Events,Conditions,WindDirDegrees,DateUTC
12:14 AM,60.3,44.8,57,29.91,10.0,SSW,8.1,-,N/A,,Clear,200,2012-11-11 05:14:00
12:34 AM,60.4,44.4,56,29.91,10.0,South,9.2,16.1,N/A,,Clear,190,2012-11-11 05:34:00
12:55 AM,59.9,44.1,56,29.91,10.0,SSW,10.4,-,N/A,,Clear,200,2012-11-11 05:55:00
1:14 AM,59.9,44.1,56,29.93,10.0,SSW,9.2,-,N/A,,Clear,200,2012-11-11 06:14:00
1:34 AM,59.4,44.1,57,29.92,10.0,South,10.4,-,N/A,,Clear,190,2012-11-11 06:34:00
1:55 AM,59.5,44.2,57,29.91,10.0,South,10.4,16.1,N/A,,Clear,190,2012-11-11 06:55:00
2:14 AM,60.6,43.9,54,29.92,10.0,South,10.4,-,N/A,,Clear,190,2012-11-11 07:14:00
2:34 AM,61.2,43.5,52,29.93,10.0,SSW,9.2,-,N/A,,Clear,200,2012-11-11 07:34:00
2:55 AM,61.2,43.0,51,29.93,10.0,SSW,9.2,-,N/A,,Clear,200,2012-11-11 07:55:00
3:14 AM,60.8,43.0,52,29.94,10.0,South,11.5,-,N/A,,Clear,190,2012-11-11 08:14:00
3:35 AM,61.3,42.8,51,29.94,10.0,SSW,8.1,16.1,N/A,,Clear,200,2012-11-11 08:35:00
3:55 AM,61.7,42.4,49,29.94,10.0,SSW,8.1,-,N/A,,Clear,200,2012-11-11 08:55:00
4:14 AM,62.2,42.3,48,29.94,10.0,SSW,15.0,27.6,N/A,,Clear,200,2012-11-11 09:14:00
4:35 AM,62.8,41.9,46,29.94,10.0,SSW,10.4,23.0,N/A,,Clear,210,2012-11-11 09:35:00
4:55 AM,63.0,41.4,45,29.95,10.0,SSW,16.1,24.2,N/A,,Clear,210,2012-11-11 09:55:00
5:14 AM,63.0,41.4,45,29.96,10.0,SSW,20.7,29.9,N/A,,Clear,210,2012-11-11 10:14:00
5:35 AM,62.2,41.9,47,29.96,10.0,SSW,9.2,23.0,N/A,,Clear,210,2012-11-11 10:35:00
5:55 AM,62.2,42.4,48,29.96,10.0,SW,12.7,26.5,N/A,,Clear,220,2012-11-11 10:55:00
6:35 AM,61.7,43.3,51,29.95,10.0,South,12.7,25.3,N/A,,Scattered Clouds,190,2012-11-11 11:35:00
6:54 AM,61.3,43.7,52,29.96,10.0,SSW,16.1,24.2,N/A,,Clear,210,2012-11-11 11:54:00
7:14 AM,61.2,43.9,53,29.96,10.0,SW,13.8,26.5,N/A,,Clear,220,2012-11-11 12:14:00
7:35 AM,61.2,44.1,53,29.94,10.0,SW,17.3,25.3,N/A,,Clear,230,2012-11-11 12:35:00
7:54 AM,61.2,44.2,54,29.94,10.0,SSW,16.1,26.5,N/A,,Clear,210,2012-11-11 12:54:00
8:35 AM,61.2,44.6,54,29.94,10.0,South,13.8,27.6,N/A,,Clear,190,2012-11-11 13:35:00
8:54 AM,61.2,44.6,54,29.94,10.0,South,12.7,31.1,N/A,,Clear,190,2012-11-11 13:54:00
9:14 AM,61.7,44.6,53,29.94,10.0,SSW,16.1,28.8,N/A,,Clear,200,2012-11-11 14:14:00
9:35 AM,62.1,45.0,53,29.94,10.0,SSW,16.1,25.3,N/A,,Clear,200,2012-11-11 14:35:00
9:54 AM,62.2,44.8,53,29.94,10.0,SSW,15.0,28.8,N/A,,Clear,200,2012-11-11 14:54:00
10:35 AM,63.1,45.3,52,29.94,10.0,South,11.5,28.8,N/A,,Clear,190,2012-11-11 15:35:00
10:54 AM,63.0,45.5,53,29.94,10.0,South,12.7,27.6,N/A,,Scattered Clouds,190,2012-11-11 15:54:00
11:15 AM,64.0,46.4,53,29.93,10.0,South,16.1,25.3,N/A,,Overcast,190,2012-11-11 16:15:00
11:34 AM,65.3,46.6,51,29.92,10.0,South,17.3,29.9,N/A,,Overcast,180,2012-11-11 16:34:00
11:54 AM,65.3,46.8,51,29.91,10.0,South,16.1,28.8,N/A,,Overcast,190,2012-11-11 16:54:00
12:15 PM,65.7,46.8,50,29.90,10.0,South,12.7,23.0,N/A,,Overcast,190,2012-11-11 17:15:00
12:34 PM,66.4,46.9,50,29.89,10.0,South,18.4,25.3,N/A,,Overcast,180,2012-11-11 17:34:00
1:15 PM,69.1,47.7,46,29.87,10.0,South,21.9,28.8,N/A,,Mostly Cloudy,180,2012-11-11 18:15:00
1:34 PM,69.4,47.8,46,29.86,10.0,SSW,18.4,23.0,N/A,,Mostly Cloudy,200,2012-11-11 18:34:00
1:54 PM,69.8,47.8,46,29.86,10.0,South,24.2,33.4,N/A,,Mostly Cloudy,190,2012-11-11 18:54:00
2:15 PM,69.1,47.7,46,29.85,10.0,South,21.9,34.5,N/A,,Overcast,190,2012-11-11 19:15:00
2:34 PM,69.4,47.5,45,29.84,10.0,South,18.4,32.2,N/A,,Overcast,190,2012-11-11 19:34:00
2:54 PM,69.4,47.7,46,29.82,10.0,SSW,18.4,24.2,N/A,,Overcast,200,2012-11-11 19:54:00
3:15 PM,69.3,47.5,46,29.82,10.0,South,16.1,27.6,N/A,,Overcast,180,2012-11-11 20:15:00
3:34 PM,69.1,46.9,45,29.82,10.0,South,19.6,32.2,N/A,,Overcast,180,2012-11-11 20:34:00
3:54 PM,68.9,46.4,44,29.81,10.0,South,20.7,27.6,N/A,,Overcast,180,2012-11-11 20:54:00
4:15 PM,68.0,46.4,46,29.81,10.0,South,17.3,29.9,N/A,,Overcast,170,2012-11-11 21:15:00
4:34 PM,67.6,45.9,46,29.81,10.0,South,20.7,27.6,N/A,,Overcast,190,2012-11-11 21:34:00
4:54 PM,67.6,45.5,45,29.80,10.0,South,18.4,24.2,N/A,,Overcast,180,2012-11-11 21:54:00
5:15 PM,67.3,45.1,45,29.80,10.0,South,19.6,26.5,N/A,,Overcast,180,2012-11-11 22:15:00
5:34 PM,67.1,45.3,45,29.81,10.0,South,18.4,25.3,N/A,,Overcast,180,2012-11-11 22:34:00
5:54 PM,66.7,45.5,46,29.81,10.0,South,25.3,35.7,N/A,,Overcast,190,2012-11-11 22:54:00
6:15 PM,66.6,45.5,47,29.81,10.0,South,21.9,29.9,N/A,,Overcast,180,2012-11-11 23:15:00
6:34 PM,66.6,45.5,47,29.80,10.0,South,19.6,31.1,N/A,,Overcast,190,2012-11-11 23:34:00
6:54 PM,66.4,45.3,47,29.80,10.0,South,16.1,32.2,N/A,,Overcast,180,2012-11-11 23:54:00
7:15 PM,66.2,45.0,46,29.79,10.0,South,15.0,29.9,N/A,,Overcast,180,2012-11-12 00:15:00
7:34 PM,65.7,45.3,48,29.79,10.0,South,19.6,29.9,N/A,,Overcast,190,2012-11-12 00:34:00
7:54 PM,65.3,45.5,49,29.80,10.0,South,18.4,31.1,N/A,,Overcast,180,2012-11-12 00:54:00
8:15 PM,60.6,49.5,67,29.83,10.0,SSW,18.4,29.9,N/A,Rain,Light Rain,200,2012-11-12 01:15:00
8:34 PM,59.4,50.5,73,29.82,10.0,South,10.4,24.2,N/A,,Overcast,190,2012-11-12 01:34:00
8:55 PM,59.2,50.4,73,29.83,10.0,South,15.0,27.6,N/A,,Overcast,190,2012-11-12 01:55:00
9:15 PM,59.0,50.0,72,29.83,10.0,South,13.8,27.6,N/A,,Overcast,190,2012-11-12 02:15:00
9:34 PM,58.5,50.0,73,29.83,7.0,South,21.9,32.2,N/A,,Overcast,190,2012-11-12 02:34:00
9:55 PM,59.0,49.5,71,29.82,10.0,South,16.1,33.4,N/A,,Overcast,190,2012-11-12 02:55:00
10:15 PM,59.0,49.5,71,29.82,10.0,South,12.7,32.2,N/A,,Overcast,190,2012-11-12 03:15:00
10:35 PM,57.4,50.9,79,29.82,10.0,South,11.5,25.3,N/A,Rain,Light Rain,190,2012-11-12 03:35:00
10:54 PM,56.7,53.1,88,29.81,10.0,SSW,9.2,26.5,N/A,Rain,Light Rain,200,2012-11-12 03:54:00
11:15 PM,56.3,53.2,89,29.82,7.0,SW,17.3,25.3,N/A,Rain,Rain,230,2012-11-12 04:15:00
11:35 PM,55.4,52.2,89,29.83,4.0,SSW,10.4,18.4,N/A,Rain,Rain,210,2012-11-12 04:35:00
11:54 PM,54.3,50.9,88,29.83,7.0,SW,9.2,-,N/A,Rain,Light Rain,230,2012-11-12 04:54:00